Time;durP1;ratioP1;P1;durP2;ratioP2;P2;SDS_P1;SDS_P2;PMS_P1;PMS_P2;Temp;Humidity;BMP_temperature;BMP_pressure;BME280_temperature;BME280_humidity;BME280_pressure;Samples;Min_cycle;Max_cycle;Signal;HPM_P1;HPM_P2
2021/08/22 00:01:57;;;;;;;5.72;3.50;;;18.50;76.60;;;;;;5070610;28;20024;-80
2021/08/22 00:04:23;;;;;;;6.13;3.65;;;18.60;76.80;;;;;;5097096;28;20565;-79
2021/08/22 00:06:49;;;;;;;4.50;3.17;;;18.50;76.60;;;;;;5105647;28;20031;-81
2021/08/22 00:09:15;;;;;;;6.05;3.60;;;18.50;76.60;;;;;;5107469;28;20035;-83
2021/08/22 00:11:41;;;;;;;7.95;3.78;;;18.50;76.70;;;;;;5107048;28;20047;-81
2021/08/22 00:14:07;;;;;;;5.38;3.35;;;18.50;76.70;;;;;;5106604;28;20023;-81
2021/08/22 00:16:33;;;;;;;7.80;3.80;;;18.50;76.70;;;;;;5107732;28;20084;-83
2021/08/22 00:18:59;;;;;;;4.45;3.30;;;18.50;76.70;;;;;;5106841;28;20035;-82
2021/08/22 00:21:25;;;;;;;5.60;3.55;;;18.50;76.70;;;;;;5106842;28;20063;-81
2021/08/22 00:23:50;;;;;;;4.03;3.00;;;18.50;76.70;;;;;;5096635;28;20035;-83
2021/08/22 00:26:16;;;;;;;5.35;3.15;;;18.50;76.80;;;;;;5085787;28;20035;-81
2021/08/22 00:28:42;;;;;;;7.40;3.22;;;18.50;76.80;;;;;;5093373;28;20134;-81
2021/08/22 00:31:08;;;;;;;5.07;3.38;;;18.50;76.80;;;;;;5105085;28;20066;-82
2021/08/22 00:33:34;;;;;;;5.38;3.58;;;18.50;76.80;;;;;;5086420;28;20034;-82
2021/08/22 00:36:00;;;;;;;4.63;2.90;;;18.50;76.80;;;;;;5075615;28;20036;-82
2021/08/22 00:38:26;;;;;;;5.43;3.45;;;18.40;76.70;;;;;;5086227;28;20039;-84
2021/08/22 00:40:52;;;;;;;4.07;2.90;;;18.40;76.70;;;;;;5091094;28;20459;-82
2021/08/22 00:43:18;;;;;;;5.25;3.55;;;18.40;76.70;;;;;;5097513;28;20039;-82
2021/08/22 00:45:44;;;;;;;5.35;3.15;;;18.40;76.70;;;;;;5111779;28;20428;-82
2021/08/22 00:48:12;;;;;;;6.00;2.90;;;18.40;76.80;;;;;;5108475;28;20036;-83
2021/08/22 00:50:38;;;;;;;5.15;2.90;;;18.30;76.70;;;;;;5090316;28;20188;-80
2021/08/22 00:53:04;;;;;;;5.50;2.63;;;18.30;76.70;;;;;;5090280;28;20038;-80
2021/08/22 00:55:31;;;;;;;3.95;2.97;;;18.30;76.80;;;;;;5090469;28;20024;-81
2021/08/22 00:57:57;;;;;;;4.50;2.78;;;18.30;76.80;;;;;;5089841;28;20132;-80
2021/08/22 01:00:23;;;;;;;5.28;3.20;;;18.30;76.90;;;;;;5111447;28;20439;-85
2021/08/22 01:03:09;;;;;;;6.82;3.22;;;18.30;77.00;;;;;;5095214;28;20036;-80
2021/08/22 01:05:59;;;;;;;4.30;3.05;;;18.20;76.70;;;;;;5110137;28;20130;-80
2021/08/22 01:08:26;;;;;;;4.75;2.83;;;18.20;76.80;;;;;;5106274;28;20028;-81
2021/08/22 01:11:02;;;;;;;7.18;2.90;;;18.20;76.80;;;;;;5080921;28;20051;-81
2021/08/22 01:13:33;;;;;;;4.90;3.08;;;18.20;76.80;;;;;;5097235;28;20035;-81
2021/08/22 01:16:04;;;;;;;6.93;2.78;;;18.20;76.80;;;;;;5110867;28;20517;-83
2021/08/22 01:18:31;;;;;;;5.47;3.08;;;18.20;76.90;;;;;;5108079;28;20046;-81
2021/08/22 01:21:08;;;;;;;6.03;3.08;;;18.10;76.70;;;;;;5111142;28;20122;-82
2021/08/22 01:23:37;;;;;;;3.70;2.75;;;18.10;76.80;;;;;;5104423;28;20285;-83
2021/08/22 01:26:06;;;;;;;5.38;3.38;;;18.10;76.80;;;;;;5089214;28;20479;-82
2021/08/22 01:28:32;;;;;;;5.32;2.72;;;18.10;76.80;;;;;;5090517;28;20035;-81
2021/08/22 01:31:04;;;;;;;4.03;3.00;;;18.10;76.80;;;;;;5089036;28;20020;-83
2021/08/22 01:33:31;;;;;;;4.55;2.88;;;18.10;76.80;;;;;;5054671;28;20539;-84
2021/08/22 01:35:59;;;;;;;4.47;2.70;;;18.10;76.80;;;;;;5071572;28;20054;-85
2021/08/22 01:38:26;;;;;;;5.63;2.72;;;18.10;76.80;;;;;;5097003;28;20038;-82
2021/08/22 01:40:54;;;;;;;4.38;2.70;;;18.10;76.80;;;;;;5092558;28;20032;-80
2021/08/22 01:43:22;;;;;;;5.82;3.03;;;18.10;76.90;;;;;;5091254;28;20039;-83
2021/08/22 01:45:55;;;;;;;3.63;2.53;;;18.10;76.90;;;;;;5085917;28;20036;-80
2021/08/22 01:48:22;;;;;;;8.18;2.83;;;18.10;77.50;;;;;;5072511;28;20024;-81
2021/08/22 01:50:48;;;;;;;5.60;2.67;;;18.10;76.90;;;;;;5071069;28;20039;-81
2021/08/22 01:53:14;;;;;;;7.72;2.92;;;18.10;77.00;;;;;;5072862;28;20116;-80
2021/08/22 01:55:41;;;;;;;3.92;2.45;;;18.00;76.80;;;;;;5073555;28;20075;-83
2021/08/22 01:58:08;;;;;;;7.38;2.90;;;18.00;76.90;;;;;;5076220;28;20033;-81
2021/08/22 02:00:34;;;;;;;5.13;2.88;;;18.00;76.90;;;;;;5072019;28;20475;-83
2021/08/22 02:03:13;;;;;;;6.90;2.85;;;18.00;76.90;;;;;;5090602;28;20028;-81
2021/08/22 02:05:39;;;;;;;4.90;2.70;;;18.00;77.00;;;;;;5094452;28;20494;-83
2021/08/22 02:08:12;;;;;;;5.82;2.85;;;18.00;76.90;;;;;;5094349;28;20028;-82
2021/08/22 02:10:44;;;;;;;4.03;2.30;;;18.00;77.00;;;;;;5075378;28;20483;-81
2021/08/22 02:13:11;;;;;;;4.22;2.50;;;18.00;76.90;;;;;;5094269;28;20055;-82
2021/08/22 02:15:42;;;;;;;5.30;2.80;;;18.00;76.90;;;;;;5093493;28;20031;-83
2021/08/22 02:18:12;;;;;;;3.88;2.40;;;18.00;77.00;;;;;;5093757;28;20071;-81
2021/08/22 02:20:42;;;;;;;4.80;3.28;;;18.00;77.00;;;;;;5093595;28;20062;-83
2021/08/22 02:23:09;;;;;;;4.80;2.60;;;18.00;77.00;;;;;;5093101;28;20031;-81
2021/08/22 02:25:35;;;;;;;4.30;2.60;;;18.00;77.00;;;;;;5092214;28;20024;-81
2021/08/22 02:28:01;;;;;;;5.70;2.80;;;18.00;77.00;;;;;;5092214;28;20157;-82
2021/08/22 02:30:32;;;;;;;5.07;2.55;;;18.00;77.00;;;;;;5095280;28;20471;-84
2021/08/22 02:33:02;;;;;;;3.13;2.42;;;18.00;77.00;;;;;;5074450;28;20028;-82
2021/08/22 02:35:28;;;;;;;4.68;2.60;;;18.00;77.00;;;;;;5072063;28;20379;-85
2021/08/22 02:37:54;;;;;;;5.63;2.75;;;18.00;77.00;;;;;;5071956;28;20037;-82
2021/08/22 02:40:20;;;;;;;5.05;3.03;;;18.00;77.00;;;;;;5073806;28;20027;-83
2021/08/22 02:42:46;;;;;;;6.93;2.72;;;18.00;76.90;;;;;;5073264;28;20035;-89
2021/08/22 02:45:12;;;;;;;5.20;3.40;;;18.00;76.90;;;;;;5072853;28;20105;-81
2021/08/22 02:47:38;;;;;;;4.80;2.47;;;18.00;76.90;;;;;;5073152;28;20029;-82
2021/08/22 02:50:05;;;;;;;6.40;3.17;;;18.00;77.00;;;;;;5072469;28;20522;-85
2021/08/22 02:52:31;;;;;;;5.18;2.70;;;18.00;77.00;;;;;;5072801;28;20039;-81
2021/08/22 02:54:56;;;;;;;6.63;3.35;;;18.00;77.10;;;;;;5071921;28;20037;-84
2021/08/22 02:57:23;;;;;;;4.20;2.53;;;17.90;76.90;;;;;;5072035;28;20106;-81
2021/08/22 02:59:49;;;;;;;5.45;2.65;;;17.90;76.90;;;;;;5071796;28;20035;-83
2021/08/22 03:02:15;;;;;;;5.07;2.75;;;17.90;77.00;;;;;;5097195;28;20391;-82
2021/08/22 03:04:41;;;;;;;4.97;2.85;;;17.90;77.00;;;;;;5112340;28;20027;-81
2021/08/22 03:07:07;;;;;;;7.47;2.80;;;17.90;77.10;;;;;;5113627;28;20035;-81
2021/08/22 03:09:33;;;;;;;6.45;3.33;;;17.90;77.10;;;;;;5113377;28;20032;-89
2021/08/22 03:11:58;;;;;;;6.78;2.58;;;17.90;77.20;;;;;;5113506;28;20104;-83
2021/08/22 03:14:24;;;;;;;5.40;2.83;;;17.90;77.20;;;;;;5112257;28;20031;-81
2021/08/22 03:16:50;;;;;;;8.43;3.20;;;17.90;77.20;;;;;;5112137;28;20053;-82
2021/08/22 03:19:16;;;;;;;5.13;2.40;;;17.80;77.00;;;;;;5113023;28;20105;-81
2021/08/22 03:21:45;;;;;;;4.43;2.63;;;17.80;77.00;;;;;;5114156;28;20088;-82
2021/08/22 03:24:12;;;;;;;10.43;2.70;;;17.80;77.00;;;;;;5114227;28;20030;-80
2021/08/22 03:26:38;;;;;;;5.28;2.28;;;17.80;77.10;;;;;;5114037;28;20054;-89
2021/08/22 03:29:04;;;;;;;7.25;3.17;;;17.80;77.10;;;;;;5113164;28;20027;-79
2021/08/22 03:31:30;;;;;;;6.90;2.70;;;17.80;77.10;;;;;;5107421;28;20398;-82
2021/08/22 03:33:56;;;;;;;5.40;2.90;;;17.80;77.10;;;;;;5092289;28;20032;-83
2021/08/22 03:36:22;;;;;;;6.97;3.13;;;17.80;77.00;;;;;;5092369;28;20047;-87
2021/08/22 03:38:48;;;;;;;4.68;2.25;;;17.80;77.00;;;;;;5092376;28;20032;-85
2021/08/22 03:41:14;;;;;;;4.38;2.63;;;17.80;77.00;;;;;;5094097;28;20401;-83
2021/08/22 03:43:40;;;;;;;7.18;2.63;;;17.80;77.00;;;;;;5091817;28;20028;-84
2021/08/22 03:46:06;;;;;;;4.97;2.72;;;17.80;77.10;;;;;;5091169;28;20031;-79
2021/08/22 03:48:32;;;;;;;5.57;2.70;;;17.80;77.10;;;;;;5092792;28;20028;-81
2021/08/22 03:50:58;;;;;;;7.07;2.90;;;17.80;77.10;;;;;;5073753;28;20495;-81
2021/08/22 03:53:24;;;;;;;5.78;3.22;;;17.70;76.90;;;;;;5090409;28;20169;-81
2021/08/22 03:55:50;;;;;;;6.55;2.60;;;17.70;76.90;;;;;;5092395;28;20031;-80
2021/08/22 03:58:16;;;;;;;4.93;2.53;;;17.70;76.90;;;;;;5094919;28;20043;-86
2021/08/22 04:00:42;;;;;;;4.60;2.33;;;17.70;77.00;;;;;;5093277;28;20091;-80
2021/08/22 04:03:08;;;;;;;4.88;2.90;;;17.70;77.00;;;;;;5091178;28;20028;-80
2021/08/22 04:05:57;;;;;;;3.35;2.65;;;17.70;77.00;;;;;;5091787;28;20507;-79
2021/08/22 04:08:24;;;;;;;5.35;2.60;;;17.60;76.90;;;;;;5090832;28;20064;-80
2021/08/22 04:10:52;;;;;;;5.15;2.63;;;17.60;76.90;;;;;;5092304;28;20118;-83
2021/08/22 04:13:19;;;;;;;4.97;2.53;;;17.60;77.00;;;;;;5073323;28;20446;-80
2021/08/22 04:15:45;;;;;;;7.65;2.85;;;17.50;76.80;;;;;;5095038;28;20081;-80
2021/08/22 04:18:11;;;;;;;3.90;2.58;;;17.50;76.90;;;;;;5092278;28;20437;-79
2021/08/22 04:20:40;;;;;;;4.07;2.90;;;17.50;76.90;;;;;;5092572;28;20089;-81
2021/08/22 04:23:07;;;;;;;4.82;2.90;;;17.50;77.00;;;;;;5092668;28;20035;-84
2021/08/22 04:25:34;;;;;;;4.03;2.75;;;17.40;76.80;;;;;;5092078;28;20035;-84
2021/08/22 04:28:00;;;;;;;4.93;2.83;;;17.50;77.00;;;;;;5092167;28;20035;-82
2021/08/22 04:30:26;;;;;;;4.13;2.97;;;17.40;76.90;;;;;;5091927;28;20028;-87
2021/08/22 04:32:52;;;;;;;6.38;3.25;;;17.40;77.00;;;;;;5093216;28;20723;-83
2021/08/22 04:35:18;;;;;;;5.70;3.00;;;17.40;77.00;;;;;;5091750;28;20036;-83
2021/08/22 04:37:44;;;;;;;4.57;2.80;;;17.40;77.00;;;;;;5091937;28;20044;-82
2021/08/22 04:40:10;;;;;;;4.53;2.85;;;17.40;77.10;;;;;;5091958;28;20596;-81
2021/08/22 04:42:36;;;;;;;3.90;3.10;;;17.30;76.90;;;;;;5092868;28;20039;-82
2021/08/22 04:45:03;;;;;;;6.47;3.10;;;17.40;77.10;;;;;;5090508;28;20119;-84
2021/08/22 04:47:29;;;;;;;8.40;3.20;;;17.30;77.00;;;;;;5087489;28;20028;-80
2021/08/22 04:49:55;;;;;;;4.60;3.13;;;17.30;77.00;;;;;;5071038;28;20024;-82
2021/08/22 04:52:21;;;;;;;4.80;2.85;;;17.30;77.00;;;;;;5068259;28;20085;-81
2021/08/22 04:54:46;;;;;;;5.57;3.63;;;17.30;77.00;;;;;;5068003;28;20124;-81
2021/08/22 04:57:12;;;;;;;6.97;3.30;;;17.30;77.10;;;;;;5068398;28;20044;-80
2021/08/22 04:59:38;;;;;;;4.13;3.25;;;17.30;77.10;;;;;;5088135;28;20099;-80
2021/08/22 05:02:05;;;;;;;5.03;3.47;;;17.30;77.10;;;;;;5086848;28;20025;-84
2021/08/22 05:04:32;;;;;;;5.97;3.47;;;17.30;77.10;;;;;;5085084;28;20024;-79
2021/08/22 05:06:58;;;;;;;4.30;2.95;;;17.30;77.10;;;;;;5086900;28;20119;-86
2021/08/22 05:09:24;;;;;;;5.18;3.85;;;17.20;77.00;;;;;;5105031;28;20089;-86
2021/08/22 05:11:50;;;;;;;5.03;3.63;;;17.20;77.00;;;;;;5106639;28;20123;-85
2021/08/22 05:14:16;;;;;;;6.20;3.75;;;17.20;77.00;;;;;;5106523;28;20042;-82
2021/08/22 05:16:42;;;;;;;6.80;3.65;;;17.20;77.10;;;;;;5106984;28;20047;-82
2021/08/22 05:19:08;;;;;;;4.72;3.35;;;17.20;77.10;;;;;;5090783;28;20024;-85
2021/08/22 05:21:34;;;;;;;4.57;3.47;;;17.20;77.20;;;;;;5086818;28;20063;-93
2021/08/22 05:24:00;;;;;;;4.32;3.33;;;17.20;77.20;;;;;;5089568;28;20028;-88
2021/08/22 05:26:26;;;;;;;5.63;3.65;;;17.20;77.20;;;;;;5090538;28;20514;-84
2021/08/22 05:28:52;;;;;;;5.70;3.72;;;17.20;77.20;;;;;;5105183;28;20028;-84
2021/08/22 05:31:18;;;;;;;5.30;3.63;;;17.20;77.20;;;;;;5108555;28;20258;-83
2021/08/22 05:33:44;;;;;;;4.68;3.58;;;17.20;77.30;;;;;;5106874;28;20080;-82
2021/08/22 05:36:15;;;;;;;7.68;4.07;;;17.20;77.30;;;;;;5111737;28;20110;-92
2021/08/22 05:38:41;;;;;;;5.35;3.78;;;17.20;77.30;;;;;;5099614;28;20042;-82
2021/08/22 05:41:07;;;;;;;5.25;3.38;;;17.20;77.20;;;;;;5090989;28;20024;-82
2021/08/22 05:43:33;;;;;;;5.60;3.63;;;17.30;77.40;;;;;;5106738;28;20402;-89
2021/08/22 05:45:59;;;;;;;5.03;3.75;;;17.30;77.40;;;;;;5111417;28;20131;-79
2021/08/22 05:48:25;;;;;;;7.38;3.70;;;17.30;77.30;;;;;;5100901;28;20034;-84
2021/08/22 05:50:50;;;;;;;3.80;3.00;;;17.30;77.30;;;;;;5090673;28;20054;-82
2021/08/22 05:53:16;;;;;;;3.80;3.20;;;17.40;77.50;;;;;;5090642;28;20050;-87
2021/08/22 05:55:42;;;;;;;4.88;3.80;;;17.40;77.50;;;;;;5090668;28;20503;-82
2021/08/22 05:58:08;;;;;;;6.13;3.85;;;17.40;77.40;;;;;;5087845;28;20040;-82
2021/08/22 06:00:36;;;;;;;3.65;2.92;;;17.50;77.50;;;;;;5091062;28;20031;-86
2021/08/22 06:03:02;;;;;;;6.68;3.75;;;17.50;77.50;;;;;;5091768;28;20036;-83
2021/08/22 06:05:28;;;;;;;4.70;3.22;;;17.50;77.40;;;;;;5091222;28;20028;-80
2021/08/22 06:07:54;;;;;;;5.40;4.13;;;17.60;77.60;;;;;;5093443;28;20394;-85
2021/08/22 06:10:20;;;;;;;5.35;3.63;;;17.60;77.50;;;;;;5109049;28;20154;-87
2021/08/22 06:12:47;;;;;;;6.78;3.50;;;17.60;77.50;;;;;;5100474;28;20119;-88
2021/08/22 06:15:13;;;;;;;3.38;2.88;;;17.70;77.60;;;;;;5090157;28;20024;-86
2021/08/22 06:17:39;;;;;;;5.10;3.60;;;17.70;77.50;;;;;;5089458;28;20397;-81
2021/08/22 06:20:05;;;;;;;4.78;3.13;;;17.70;77.50;;;;;;5088684;28;20032;-88
2021/08/22 06:22:32;;;;;;;6.32;3.92;;;17.80;77.60;;;;;;5094851;28;20028;-89
2021/08/22 06:24:58;;;;;;;5.38;3.20;;;17.80;77.60;;;;;;5109080;28;20031;-84
2021/08/22 06:27:24;;;;;;;3.78;3.00;;;17.80;77.50;;;;;;5108447;28;20027;-84
2021/08/22 06:29:50;;;;;;;7.90;3.42;;;17.90;77.60;;;;;;5088801;28;20039;-81
2021/08/22 06:32:16;;;;;;;8.18;3.60;;;17.90;77.50;;;;;;5097117;28;20387;-81
2021/08/22 06:34:42;;;;;;;7.30;3.33;;;17.90;77.50;;;;;;5097391;28;20038;-89
2021/08/22 06:37:09;;;;;;;3.08;2.53;;;17.90;77.40;;;;;;5069657;28;20082;-81
2021/08/22 06:39:41;;;;;;;4.65;2.63;;;18.00;77.60;;;;;;5096226;28;20032;-84
2021/08/22 06:42:07;;;;;;;6.32;2.83;;;18.00;77.50;;;;;;5070075;28;20106;-80
2021/08/22 06:44:34;;;;;;;5.40;3.22;;;18.00;77.50;;;;;;5086740;28;20055;-79
2021/08/22 06:47:00;;;;;;;3.35;3.05;;;18.00;77.40;;;;;;5086940;28;20043;-84
2021/08/22 06:49:26;;;;;;;4.75;2.72;;;18.00;77.40;;;;;;5104738;28;20034;-81
2021/08/22 06:51:52;;;;;;;3.40;2.92;;;18.00;77.30;;;;;;5107844;27;20028;-78
2021/08/22 06:54:18;;;;;;;3.28;2.83;;;18.10;77.50;;;;;;5088629;28;20038;-88
2021/08/22 06:56:44;;;;;;;4.07;3.08;;;18.10;77.50;;;;;;5088234;28;20032;-84
2021/08/22 06:59:10;;;;;;;3.70;2.75;;;18.10;77.50;;;;;;5102825;28;20036;-81
2021/08/22 07:01:37;;;;;;;5.60;3.50;;;18.20;77.80;;;;;;5100924;28;20426;-80
2021/08/22 07:04:03;;;;;;;3.40;3.00;;;18.30;78.10;;;;;;5087824;28;20035;-78
2021/08/22 07:06:29;;;;;;;3.60;2.60;;;18.50;78.20;;;;;;5086383;28;20468;-79
2021/08/22 07:08:56;;;;;;;3.20;2.58;;;18.60;78.20;;;;;;5100780;28;20110;-79
2021/08/22 07:11:22;;;;;;;4.30;3.00;;;18.80;78.40;;;;;;5106067;28;20040;-78
2021/08/22 07:13:48;;;;;;;5.05;3.38;;;18.90;78.40;;;;;;5095366;28;20032;-82
2021/08/22 07:16:14;;;;;;;6.68;2.60;;;19.10;78.40;;;;;;5066402;28;20074;-79
2021/08/22 07:18:41;;;;;;;4.13;2.70;;;19.40;78.50;;;;;;5090689;28;20031;-81
2021/08/22 07:21:07;;;;;;;3.97;2.63;;;19.50;78.20;;;;;;5107989;28;20055;-79
2021/08/22 07:23:33;;;;;;;4.28;2.92;;;19.60;78.00;;;;;;5093867;28;20043;-81
2021/08/22 07:25:59;;;;;;;3.65;2.90;;;19.70;77.90;;;;;;5076841;28;20132;-79
2021/08/22 07:28:25;;;;;;;4.05;2.47;;;19.80;77.90;;;;;;5082078;28;20115;-78
2021/08/22 07:30:51;;;;;;;3.53;2.53;;;19.80;77.70;;;;;;5087761;28;20020;-80
2021/08/22 07:33:17;;;;;;;3.28;2.65;;;19.90;77.60;;;;;;5087296;28;20028;-79
2021/08/22 07:35:43;;;;;;;4.47;2.40;;;20.00;77.60;;;;;;5086435;28;20024;-82
2021/08/22 07:38:09;;;;;;;3.08;2.50;;;20.10;77.60;;;;;;5093214;28;20062;-81
2021/08/22 07:40:36;;;;;;;3.33;2.80;;;20.20;77.60;;;;;;5107575;28;20032;-80
2021/08/22 07:43:02;;;;;;;2.83;2.45;;;20.30;77.50;;;;;;5096344;28;20048;-76
2021/08/22 07:45:28;;;;;;;3.13;2.45;;;20.40;77.50;;;;;;5086360;28;20433;-86
2021/08/22 07:47:54;;;;;;;4.32;2.50;;;20.50;77.50;;;;;;5092074;28;20046;-83
2021/08/22 07:50:20;;;;;;;2.83;2.42;;;20.60;77.50;;;;;;5106759;28;20028;-81
2021/08/22 07:52:46;;;;;;;3.05;2.20;;;20.70;77.50;;;;;;5099207;28;20127;-81
2021/08/22 07:55:13;;;;;;;3.08;2.20;;;20.80;77.50;;;;;;5085147;28;20051;-80
2021/08/22 07:57:39;;;;;;;3.20;2.55;;;21.00;77.50;;;;;;5085023;28;20510;-82
2021/08/22 08:00:06;;;;;;;5.10;2.53;;;21.20;77.50;;;;;;5071319;28;20033;-81
2021/08/22 08:02:37;;;;;;;2.53;2.33;;;21.30;77.20;;;;;;5082199;28;20036;-81
2021/08/22 08:05:04;;;;;;;3.78;2.80;;;21.50;77.30;;;;;;5086244;28;20028;-79
2021/08/22 08:07:30;;;;;;;6.85;2.35;;;21.70;77.30;;;;;;5084196;28;20030;-89
2021/08/22 08:09:56;;;;;;;3.88;2.50;;;21.90;77.20;;;;;;5091170;28;20078;-85
2021/08/22 08:12:22;;;;;;;2.97;2.30;;;22.00;76.90;;;;;;5068374;28;20048;-82
2021/08/22 08:14:48;;;;;;;6.40;2.42;;;22.10;76.80;;;;;;5084422;28;20126;-84
2021/08/22 08:17:14;;;;;;;3.53;2.53;;;22.10;76.70;;;;;;5084229;28;20079;-84
2021/08/22 08:19:40;;;;;;;2.28;1.77;;;22.20;76.70;;;;;;5083998;28;20027;-82
2021/08/22 08:22:08;;;;;;;2.55;2.30;;;22.20;76.60;;;;;;5084647;28;20036;-84
2021/08/22 08:24:34;;;;;;;5.03;2.63;;;22.20;76.50;;;;;;5084328;28;20036;-86
2021/08/22 08:27:00;;;;;;;4.00;2.20;;;22.20;76.40;;;;;;5084821;28;20197;-81
2021/08/22 08:29:27;;;;;;;3.58;2.40;;;22.30;76.50;;;;;;5085583;28;20073;-84
2021/08/22 08:31:53;;;;;;;3.50;1.95;;;22.30;76.30;;;;;;5081277;28;20024;-81
2021/08/22 08:34:19;;;;;;;2.58;2.30;;;22.30;76.20;;;;;;5086370;28;20032;-83
2021/08/22 08:36:45;;;;;;;4.03;2.10;;;22.30;76.10;;;;;;5085996;28;20040;-79
2021/08/22 08:39:11;;;;;;;3.03;2.20;;;22.30;76.00;;;;;;5103700;28;20350;-82
2021/08/22 08:41:37;;;;;;;2.60;2.25;;;22.30;75.80;;;;;;5107232;28;20482;-86
2021/08/22 08:44:04;;;;;;;3.05;2.25;;;22.30;75.80;;;;;;5086636;28;20501;-83
2021/08/22 08:46:51;;;;;;;5.25;2.33;;;22.30;75.70;;;;;;5073597;28;20411;-82
2021/08/22 08:49:52;;;;;;;4.10;2.28;;;22.40;75.70;;;;;;5076193;28;20024;-87
2021/08/22 08:52:48;;;;;;;4.25;2.42;;;22.40;75.50;;;;;;5068639;28;20400;-83
2021/08/22 08:55:22;;;;;;;6.55;2.38;;;22.40;75.50;;;;;;5083747;28;20057;-82
2021/08/22 08:57:48;;;;;;;2.78;1.90;;;22.40;75.50;;;;;;5086239;28;20670;-84
2021/08/22 09:00:26;;;;;;;3.58;2.10;;;22.30;75.40;;;;;;5068660;28;20024;-81
2021/08/22 09:02:52;;;;;;;2.75;2.33;;;22.40;75.60;;;;;;5101159;28;20460;-82
2021/08/22 09:05:21;;;;;;;4.88;2.55;;;22.40;75.60;;;;;;5089813;28;20115;-80
2021/08/22 09:08:13;;;;;;;3.10;2.50;;;22.30;75.30;;;;;;5093140;28;20028;-81
2021/08/22 09:11:17;;;;;;;4.80;2.50;;;22.30;75.30;;;;;;5070532;28;20160;-87
2021/08/22 09:14:08;;;;;;;2.70;2.28;;;22.40;75.50;;;;;;5075472;28;20073;-94
2021/08/22 09:17:23;;;;;;;4.43;2.38;;;22.50;75.50;;;;;;5070613;28;20032;-80
2021/08/22 09:20:14;;;;;;;4.03;2.45;;;22.70;75.60;;;;;;5063243;28;20095;-85
2021/08/22 09:23:18;;;;;;;3.38;2.47;;;22.80;75.40;;;;;;5068790;28;20048;-84
2021/08/22 09:26:21;;;;;;;6.80;2.38;;;23.00;75.50;;;;;;5063881;28;20024;-94
2021/08/22 09:29:18;;;;;;;4.15;2.30;;;23.20;75.40;;;;;;5093632;28;20017;-91
2021/08/22 09:32:22;;;;;;;8.65;2.30;;;23.30;75.40;;;;;;5068189;28;20111;-91
2021/08/22 09:34:50;;;;;;;;;;;23.40;75.30;;;;;;5092484;28;20040;-85
2021/08/22 09:37:27;;;;;;;3.42;1.90;;;23.50;75.40;;;;;;5078415;28;19916;-83
2021/08/22 09:40:31;;;;;;;2.88;2.20;;;23.60;75.20;;;;;;5071050;28;20551;-91
2021/08/22 09:43:26;;;;;;;4.65;3.20;;;23.80;75.30;;;;;;5079503;28;20046;-86
2021/08/22 09:46:14;;;;;;;4.25;3.13;;;23.90;75.00;;;;;;5102264;28;20028;-89
2021/08/22 09:49:19;;;;;;;6.30;2.50;;;24.10;74.90;;;;;;5104005;28;20031;-86
2021/08/22 09:52:03;;;;;;;3.78;2.67;;;24.10;74.60;;;;;;5103608;28;20469;-90
2021/08/22 09:54:38;;;;;;;5.63;2.78;;;24.20;74.70;;;;;;5068864;28;20493;-83
2021/08/22 09:57:47;;;;;;;5.72;2.67;;;24.20;74.40;;;;;;5067335;28;20488;-86
2021/08/22 10:00:40;;;;;;;3.83;2.60;;;24.30;74.50;;;;;;5068028;28;20040;-83
2021/08/22 10:03:15;;;;;;;3.58;2.22;;;24.40;74.50;;;;;;5089257;28;20442;-84
2021/08/22 10:06:03;;;;;;;4.00;2.20;;;24.50;74.50;;;;;;5090418;28;20047;-85
2021/08/22 10:08:44;;;;;;;2.88;2.05;;;24.50;74.30;;;;;;5098964;28;20146;-80
2021/08/22 10:11:15;;;;;;;3.15;2.00;;;24.50;74.20;;;;;;5108149;28;20290;-84
2021/08/22 10:13:41;;;;;;;3.22;2.15;;;24.60;74.20;;;;;;5094033;28;20027;-84
2021/08/22 10:16:08;;;;;;;4.75;2.60;;;24.60;74.00;;;;;;5080573;28;20032;-91
2021/08/22 10:18:34;;;;;;;3.72;2.17;;;24.70;74.00;;;;;;5083942;28;20564;-81
2021/08/22 10:21:02;;;;;;;4.60;2.30;;;24.70;73.80;;;;;;5070143;28;20044;-81
2021/08/22 10:23:38;;;;;;;2.90;2.03;;;24.80;73.90;;;;;;5078683;28;20039;-87
2021/08/22 10:26:05;;;;;;;2.75;2.05;;;24.90;73.80;;;;;;5078874;28;20353;-78
2021/08/22 10:28:53;;;;;;;4.03;2.00;;;24.90;73.60;;;;;;5067422;28;20028;-87
2021/08/22 10:31:51;;;;;;;5.60;2.25;;;25.00;73.70;;;;;;5094274;28;20032;-80
2021/08/22 10:34:26;;;;;;;4.43;2.00;;;25.20;73.60;;;;;;5081744;28;20154;-91
2021/08/22 10:36:53;;;;;;;2.35;1.70;;;25.30;73.20;;;;;;5081011;28;20038;-84
2021/08/22 10:39:23;;;;;;;3.22;1.85;;;25.40;73.10;;;;;;5074885;28;20077;-84
2021/08/22 10:41:50;;;;;;;5.57;1.88;;;25.40;72.90;;;;;;5079160;28;20179;-83
2021/08/22 10:44:34;;;;;;;3.15;2.00;;;25.50;72.90;;;;;;5073890;28;20028;-82
2021/08/22 10:47:00;;;;;;;3.45;1.60;;;25.50;72.80;;;;;;5066120;28;20040;-82
2021/08/22 10:50:05;;;;;;;3.70;2.08;;;25.50;72.70;;;;;;5089380;28;20103;-81
2021/08/22 10:52:33;;;;;;;1.52;1.27;;;25.50;72.60;;;;;;5086664;28;20060;-82
2021/08/22 10:55:13;;;;;;;2.60;1.77;;;25.50;72.50;;;;;;5079157;28;20032;-82
2021/08/22 10:57:45;;;;;;;4.07;1.55;;;25.60;72.50;;;;;;5071255;28;20105;-81
2021/08/22 11:00:28;;;;;;;2.40;1.98;;;25.70;72.30;;;;;;5107906;28;20224;-82
2021/08/22 11:03:30;;;;;;;3.95;1.98;;;25.70;72.20;;;;;;5089853;28;20031;-85
2021/08/22 11:06:04;;;;;;;2.38;1.60;;;25.80;72.00;;;;;;5051174;28;20640;-82
2021/08/22 11:08:32;;;;;;;3.25;1.60;;;26.00;72.00;;;;;;5084243;28;20040;-83
2021/08/22 11:11:00;;;;;;;2.85;1.42;;;26.10;71.90;;;;;;5074432;28;20044;-83
2021/08/22 11:13:29;;;;;;;1.80;1.48;;;26.20;71.70;;;;;;5078700;28;20402;-83
2021/08/22 11:16:00;;;;;;;2.58;1.55;;;26.30;71.40;;;;;;5077709;28;20039;-86
2021/08/22 11:18:26;;;;;;;3.47;2.30;;;26.50;71.30;;;;;;5081282;28;20071;-86
2021/08/22 11:20:52;;;;;;;3.28;2.00;;;26.50;71.00;;;;;;5068688;28;20056;-86
2021/08/22 11:23:21;;;;;;;2.58;2.08;;;26.60;70.80;;;;;;5084467;28;20051;-83
2021/08/22 11:25:57;;;;;;;3.97;2.25;;;26.70;70.60;;;;;;5067560;28;20036;-87
2021/08/22 11:28:23;;;;;;;4.45;2.00;;;26.70;70.50;;;;;;5084125;28;20023;-84
2021/08/22 11:30:49;;;;;;;2.25;1.60;;;26.80;70.50;;;;;;5105742;28;20450;-82
2021/08/22 11:33:16;;;;;;;3.15;2.17;;;26.80;70.30;;;;;;5087536;28;20028;-85
2021/08/22 11:35:44;;;;;;;2.58;2.30;;;26.90;70.20;;;;;;5087639;28;20063;-83
2021/08/22 11:38:11;;;;;;;2.33;1.90;;;26.90;69.90;;;;;;5093205;28;20090;-81
2021/08/22 11:40:38;;;;;;;4.50;1.70;;;26.90;69.90;;;;;;5106864;28;20355;-80
2021/08/22 11:43:06;;;;;;;4.60;2.22;;;26.90;69.80;;;;;;5098158;28;20078;-86
2021/08/22 11:45:44;;;;;;;3.28;1.88;;;26.90;69.70;;;;;;5086631;28;20036;-82
2021/08/22 11:48:19;;;;;;;3.00;1.90;;;27.00;69.60;;;;;;5088220;28;20032;-82
2021/08/22 11:50:47;;;;;;;3.63;2.10;;;27.00;69.60;;;;;;5072152;28;20046;-81
2021/08/22 11:53:15;;;;;;;4.30;1.88;;;27.00;69.60;;;;;;5074169;28;20028;-80
2021/08/22 11:55:41;;;;;;;2.78;1.77;;;27.00;69.50;;;;;;5075430;28;20042;-82
2021/08/22 11:58:16;;;;;;;3.50;1.90;;;27.00;69.50;;;;;;5063495;28;20386;-79
2021/08/22 12:00:50;;;;;;;3.85;2.20;;;27.00;69.50;;;;;;5078286;28;20039;-81
2021/08/22 12:03:19;;;;;;;3.95;2.47;;;27.00;69.30;;;;;;5075851;28;20127;-82
2021/08/22 12:06:00;;;;;;;2.95;2.13;;;27.00;69.30;;;;;;5078538;28;20057;-84
2021/08/22 12:08:30;;;;;;;2.95;2.10;;;27.10;69.20;;;;;;5076883;28;20051;-83
2021/08/22 12:11:10;;;;;;;2.35;1.92;;;27.10;69.20;;;;;;5073759;28;20040;-81
2021/08/22 12:13:39;;;;;;;2.00;1.80;;;27.10;69.20;;;;;;5075390;28;20505;-80
2021/08/22 12:16:27;;;;;;;2.97;1.75;;;27.20;69.20;;;;;;5074600;28;20028;-81
2021/08/22 12:18:55;;;;;;;3.25;1.80;;;27.10;68.90;;;;;;5077704;28;20387;-82
2021/08/22 12:21:23;;;;;;;4.68;2.17;;;27.20;68.90;;;;;;5075971;28;20474;-81
2021/08/22 12:23:53;;;;;;;3.85;1.83;;;27.20;68.80;;;;;;5076545;28;20285;-80
2021/08/22 12:26:24;;;;;;;2.35;1.83;;;27.30;68.80;;;;;;5075010;28;20492;-80
2021/08/22 12:28:57;;;;;;;2.45;1.88;;;27.30;68.60;;;;;;5075922;28;20502;-81
2021/08/22 12:31:32;;;;;;;2.53;2.10;;;27.30;68.50;;;;;;5072881;28;20060;-80
2021/08/22 12:34:15;;;;;;;3.35;2.17;;;27.40;68.50;;;;;;5084311;28;20028;-80
2021/08/22 12:36:43;;;;;;;3.25;1.85;;;27.40;68.40;;;;;;5089838;28;20055;-80
2021/08/22 12:39:11;;;;;;;6.30;2.35;;;27.50;68.40;;;;;;5089944;28;20552;-80
2021/08/22 12:41:47;;;;;;;2.25;1.77;;;27.50;68.20;;;;;;5088016;28;20028;-80
2021/08/22 12:44:14;;;;;;;3.22;1.90;;;27.60;68.10;;;;;;5088795;28;20063;-79
2021/08/22 12:46:40;;;;;;;4.10;1.88;;;27.70;68.10;;;;;;5109018;28;20038;-80
2021/08/22 12:49:08;;;;;;;2.20;1.98;;;27.80;68.00;;;;;;5094751;28;20031;-80
2021/08/22 12:51:37;;;;;;;3.10;1.77;;;27.80;67.80;;;;;;5061603;28;20472;-79
2021/08/22 12:54:05;;;;;;;3.80;2.40;;;27.90;67.70;;;;;;5085490;28;20040;-80
2021/08/22 12:56:31;;;;;;;2.78;1.90;;;28.00;67.70;;;;;;5089278;28;20035;-80
2021/08/22 12:58:57;;;;;;;5.07;2.47;;;28.00;67.50;;;;;;5089126;28;20028;-80
2021/08/22 13:01:24;;;;;;;2.38;1.55;;;28.10;67.50;;;;;;5086892;28;20056;-83
2021/08/22 13:03:53;;;;;;;2.90;2.08;;;28.10;67.40;;;;;;5081016;28;20055;-81